createdAt,value
2023-02-12T00:01:35.060Z,102910.66
2023-02-12T00:04:24.348Z,102889.28
2023-02-12T00:07:01.690Z,102883.91
2023-02-12T00:09:45.601Z,102896.03
2023-02-12T00:12:12.889Z,102892.13
2023-02-12T00:14:57.008Z,102885.00
2023-02-12T00:17:31.240Z,102881.59
2023-02-12T00:20:13.336Z,102883.75
2023-02-12T00:22:40.353Z,102886.28
2023-02-12T00:25:16.693Z,102886.78
2023-02-12T00:28:03.541Z,102891.56
2023-02-12T00:30:30.597Z,102889.72
2023-02-12T00:33:01.932Z,102896.75
2023-02-12T00:35:35.044Z,102887.16
2023-02-12T00:38:01.873Z,102889.66
2023-02-12T00:40:31.851Z,102891.66
2023-02-12T00:43:08.777Z,102895.50
2023-02-12T00:45:42.843Z,102890.69
2023-02-12T00:48:09.841Z,102888.41
2023-02-12T00:50:53.336Z,102882.19
2023-02-12T00:53:20.256Z,102884.41
2023-02-12T00:55:49.895Z,102877.19
2023-02-12T00:58:25.885Z,102881.63
2023-02-12T01:00:54.236Z,102896.69
2023-02-12T01:03:27.105Z,102897.63
2023-02-12T01:05:58.065Z,102892.00
2023-02-12T01:08:25.715Z,102890.47
2023-02-12T01:11:05.009Z,102892.91
2023-02-12T01:13:44.071Z,102894.31
2023-02-12T01:19:08.618Z,102900.63
2023-02-12T01:21:35.655Z,102894.44
2023-02-12T01:24:33.343Z,102894.63
2023-02-12T01:27:15.566Z,102892.88
2023-02-12T01:29:51.280Z,102889.69
2023-02-12T01:32:20.863Z,102882.22
2023-02-12T01:34:57.122Z,102886.28
2023-02-12T01:37:26.852Z,102881.88
2023-02-12T01:40:07.587Z,102882.63
2023-02-12T01:42:44.790Z,102874.94
2023-02-12T01:45:37.795Z,102865.38
2023-02-12T01:48:15.234Z,102859.44
2023-02-12T01:51:30.573Z,102851.88
2023-02-12T01:54:12.226Z,102851.59
2023-02-12T01:57:01.531Z,102856.31
2023-02-12T01:59:43.139Z,102852.34
2023-02-12T02:02:10.060Z,102858.03
2023-02-12T02:04:59.473Z,102865.97
2023-02-12T02:07:30.177Z,102865.75
2023-02-12T02:10:06.823Z,102865.34
2023-02-12T02:12:56.024Z,102866.00
2023-02-12T02:15:38.807Z,102868.59
2023-02-12T02:18:18.413Z,102859.31
2023-02-12T02:21:06.235Z,102865.84
2023-02-12T02:23:59.977Z,102863.59
2023-02-12T02:27:02.819Z,102866.59
2023-02-12T02:30:03.765Z,102865.34
2023-02-12T02:32:45.173Z,102868.00
2023-02-12T02:35:40.427Z,102860.28
2023-02-12T02:38:38.796Z,102858.44
2023-02-12T02:41:18.202Z,102860.03
2023-02-12T02:43:50.831Z,102847.66
2023-02-12T02:46:32.389Z,102843.63
2023-02-12T02:49:15.630Z,102847.06
2023-02-12T02:51:53.246Z,102862.78
2023-02-12T02:54:36.619Z,102846.47
2023-02-12T02:57:42.038Z,102836.53
2023-02-12T03:00:20.665Z,102833.09
2023-02-12T03:02:57.231Z,102835.22
2023-02-12T03:05:51.660Z,102829.47
2023-02-12T03:08:36.502Z,102821.22
2023-02-12T03:11:34.153Z,102825.44
2023-02-12T03:14:19.309Z,102818.75
2023-02-12T03:17:07.372Z,102816.03
2023-02-12T03:20:00.241Z,102826.88
2023-02-12T03:22:40.985Z,102835.69
2023-02-12T03:25:27.213Z,102825.72
2023-02-12T03:28:12.952Z,102828.03
2023-02-12T03:30:57.226Z,102825.44
2023-02-12T03:33:37.539Z,102826.09
2023-02-12T03:36:34.859Z,102822.66
2023-02-12T03:39:11.218Z,102832.75
2023-02-12T03:41:42.840Z,102828.88
2023-02-12T03:44:48.377Z,102833.03
2023-02-12T03:47:39.587Z,102831.88
2023-02-12T03:50:33.209Z,102838.66
2023-02-12T03:53:00.061Z,102834.59
2023-02-12T03:55:29.698Z,102837.63
2023-02-12T03:58:06.233Z,102822.31
2023-02-12T04:00:33.792Z,102826.16
2023-02-12T04:03:05.565Z,102815.06
2023-02-12T04:05:38.539Z,102816.44
2023-02-12T04:08:14.448Z,102800.31
2023-02-12T04:11:18.438Z,102803.16
2023-02-12T04:14:12.878Z,102796.53
2023-02-12T04:17:25.647Z,102790.19
2023-02-12T04:20:49.329Z,102790.63
2023-02-12T04:23:30.962Z,102791.25
2023-02-12T04:26:09.306Z,102789.28
2023-02-12T04:29:08.085Z,102795.56
2023-02-12T04:32:04.016Z,102803.63
2023-02-12T04:34:53.490Z,102797.69
2023-02-12T04:37:37.646Z,102793.84
2023-02-12T04:40:13.023Z,102793.38
2023-02-12T04:42:45.289Z,102794.28
2023-02-12T04:45:19.880Z,102794.78
2023-02-12T04:48:11.225Z,102802.47
2023-02-12T04:50:49.613Z,102790.31
2023-02-12T04:53:20.136Z,102793.75
2023-02-12T04:55:50.973Z,102796.34
2023-02-12T04:58:19.263Z,102801.88
2023-02-12T05:01:00.301Z,102813.25
2023-02-12T05:03:32.388Z,102814.59
2023-02-12T05:06:08.794Z,102825.91
2023-02-12T05:08:38.495Z,102820.28
2023-02-12T05:11:13.364Z,102824.09
2023-02-12T05:13:47.941Z,102832.34
2023-02-12T05:16:29.839Z,102835.56
2023-02-12T05:18:57.175Z,102840.72
2023-02-12T05:21:25.490Z,102842.22
2023-02-12T05:24:00.708Z,102839.28
2023-02-12T05:26:27.588Z,102832.41
2023-02-12T05:28:54.387Z,102827.13
2023-02-12T05:31:25.840Z,102820.22
2023-02-12T05:36:40.396Z,102825.97
2023-02-12T05:39:07.635Z,102823.78
2023-02-12T05:41:40.765Z,102817.47
2023-02-12T05:44:17.928Z,102811.13
2023-02-12T05:46:50.812Z,102807.41
2023-02-12T05:49:22.481Z,102800.72
2023-02-12T05:51:57.642Z,102797.81
2023-02-12T05:54:24.557Z,102792.78
2023-02-12T05:56:54.075Z,102787.13
2023-02-12T05:59:26.606Z,102789.50
2023-02-12T06:01:55.857Z,102794.28
2023-02-12T06:04:38.374Z,102803.72
2023-02-12T06:07:45.344Z,102797.16
2023-02-12T06:10:18.509Z,102799.34
2023-02-12T06:12:45.387Z,102815.63
2023-02-12T06:15:15.505Z,102818.19
2023-02-12T06:17:48.309Z,102813.34
2023-02-12T06:20:15.790Z,102810.50
2023-02-12T06:22:51.563Z,102815.72
2023-02-12T06:25:18.438Z,102818.19
2023-02-12T06:27:45.390Z,102815.59
2023-02-12T06:30:29.327Z,102824.28
2023-02-12T06:32:58.533Z,102838.88
2023-02-12T06:35:31.351Z,102854.25
2023-02-12T06:38:04.223Z,102858.78
2023-02-12T06:40:43.198Z,102858.19
2023-02-12T06:43:10.063Z,102867.22
2023-02-12T06:45:42.919Z,102876.56
2023-02-12T06:48:14.196Z,102868.31
2023-02-12T06:50:41.062Z,102872.88
2023-02-12T06:53:22.582Z,102879.22
2023-02-12T06:55:54.587Z,102877.97
2023-02-12T07:02:07.509Z,102885.88
2023-02-12T07:04:36.232Z,102870.53
2023-02-12T07:07:07.052Z,102871.94
2023-02-12T07:09:35.014Z,102871.09
2023-02-12T07:12:01.784Z,102873.66
2023-02-12T07:14:28.740Z,102878.25
2023-02-12T07:16:57.547Z,102892.69
2023-02-12T07:19:28.453Z,102892.59
2023-02-12T07:21:58.552Z,102899.97
2023-02-12T07:24:28.498Z,102901.09
2023-02-12T07:27:00.702Z,102903.19
2023-02-12T07:29:39.737Z,102913.53
2023-02-12T07:32:15.463Z,102907.19
2023-02-12T07:34:44.818Z,102909.34
2023-02-12T07:37:22.134Z,102911.16
2023-02-12T07:39:58.386Z,102914.69
2023-02-12T07:42:29.442Z,102911.84
2023-02-12T07:44:59.222Z,102905.22
2023-02-12T07:47:30.298Z,102899.72
2023-02-12T07:50:27.026Z,102901.91
2023-02-12T07:53:34.556Z,102891.28
2023-02-12T07:56:40.925Z,102891.16
2023-02-12T07:59:26.205Z,102894.72
2023-02-12T08:01:53.524Z,102889.41
2023-02-12T08:07:09.062Z,102885.00
2023-02-12T08:09:41.643Z,102898.44
2023-02-12T08:12:14.480Z,102905.97
2023-02-12T08:14:43.272Z,102905.97
2023-02-12T08:17:10.921Z,102918.84
2023-02-12T08:19:41.221Z,102917.19
2023-02-12T08:22:08.056Z,102923.19
2023-02-12T08:24:42.414Z,102932.22
2023-02-12T08:27:09.254Z,102937.06
2023-02-12T08:29:36.667Z,102936.34
2023-02-12T08:32:04.520Z,102943.75
2023-02-12T08:34:36.418Z,102950.56
2023-02-12T08:37:06.066Z,102954.34
2023-02-12T08:39:44.911Z,102950.19
2023-02-12T08:42:11.701Z,102948.72
2023-02-12T08:44:53.069Z,102940.97
2023-02-12T08:47:34.061Z,102952.53
2023-02-12T08:50:10.276Z,102953.28
2023-02-12T08:52:43.966Z,102957.44
2023-02-12T08:55:17.427Z,102938.38
2023-02-12T08:57:50.584Z,102940.53
2023-02-12T09:00:18.970Z,102933.06
2023-02-12T09:02:52.316Z,102939.94
2023-02-12T09:05:31.452Z,102930.56
2023-02-12T09:08:07.281Z,102927.41
2023-02-12T09:10:39.568Z,102939.75
2023-02-12T09:13:08.075Z,102946.19
2023-02-12T09:15:45.251Z,102933.47
2023-02-12T09:18:13.797Z,102934.34
2023-02-12T09:20:50.530Z,102925.97
2023-02-12T09:23:20.440Z,102917.50
2023-02-12T09:25:59.098Z,102915.00
2023-02-12T09:28:26.093Z,102906.41
2023-02-12T09:31:02.023Z,102908.47
2023-02-12T09:33:28.862Z,102925.38
2023-02-12T09:35:55.835Z,102931.66
2023-02-12T09:38:25.659Z,102933.50
2023-02-12T09:41:19.945Z,102921.53
2023-02-12T09:44:18.126Z,102934.72
2023-02-12T09:47:13.277Z,102937.53
2023-02-12T09:50:17.679Z,102948.50
2023-02-12T09:52:47.039Z,102945.00
2023-02-12T09:55:34.500Z,102953.09
2023-02-12T10:01:37.076Z,102963.91
2023-02-12T10:04:08.007Z,102970.00
2023-02-12T10:06:48.842Z,102978.09
2023-02-12T10:09:54.344Z,102978.13
2023-02-12T10:12:50.812Z,102979.13
2023-02-12T10:15:29.592Z,102968.81
2023-02-12T10:18:18.529Z,102970.63
2023-02-12T10:21:11.152Z,102963.66
2023-02-12T10:24:22.692Z,102958.38
2023-02-12T10:27:00.008Z,102954.97
2023-02-12T10:29:48.152Z,102948.09
2023-02-12T10:32:52.855Z,102946.47
2023-02-12T10:35:22.023Z,102946.66
2023-02-12T10:38:09.660Z,102946.66
2023-02-12T10:40:44.890Z,102943.22
2023-02-12T10:43:24.486Z,102948.56
2023-02-12T10:45:51.440Z,102942.53
2023-02-12T10:52:00.605Z,102946.88
2023-02-12T10:54:41.871Z,102950.38
2023-02-12T10:57:35.032Z,102950.44
2023-02-12T11:00:28.057Z,102945.19
2023-02-12T11:03:29.207Z,102935.38
2023-02-12T11:06:25.796Z,102939.53
2023-02-12T11:09:33.846Z,102926.56
2023-02-12T11:12:00.685Z,102928.22
2023-02-12T11:14:38.445Z,102924.72
2023-02-12T11:17:26.899Z,102926.47
2023-02-12T11:20:53.601Z,102924.56
2023-02-12T11:23:43.774Z,102919.47
2023-02-12T11:26:27.443Z,102916.75
2023-02-12T11:29:18.746Z,102927.28
2023-02-12T11:32:10.276Z,102914.19
2023-02-12T11:34:48.011Z,102912.38
2023-02-12T11:37:27.318Z,102910.66
2023-02-12T11:39:54.525Z,102906.25
2023-02-12T11:42:26.654Z,102914.88
2023-02-12T11:44:57.945Z,102925.44
2023-02-12T11:47:29.626Z,102911.28
2023-02-12T11:49:56.287Z,102913.00
2023-02-12T11:52:26.057Z,102916.66
2023-02-12T11:54:59.661Z,102929.72
2023-02-12T11:57:47.537Z,102927.84
2023-02-12T12:00:39.457Z,102928.72
2023-02-12T12:03:26.463Z,102927.88
2023-02-12T12:06:09.494Z,102924.38
2023-02-12T12:08:55.038Z,102926.09
2023-02-12T12:11:39.390Z,102922.59
2023-02-12T12:14:20.501Z,102920.97
2023-02-12T12:17:51.655Z,102924.41
2023-02-12T12:20:39.799Z,102918.22
2023-02-12T12:23:15.777Z,102923.63
2023-02-12T12:25:51.323Z,102926.09
2023-02-12T12:28:51.626Z,102924.22
2023-02-12T12:34:25.349Z,102909.56
2023-02-12T12:37:25.347Z,102906.75
2023-02-12T12:40:42.767Z,102905.03
2023-02-12T12:44:03.134Z,102908.66
2023-02-12T12:47:14.464Z,102905.09
2023-02-12T12:49:47.252Z,102906.03
2023-02-12T12:56:25.338Z,102894.69
2023-02-12T12:59:15.046Z,102901.56
2023-02-12T13:02:10.273Z,102890.91
2023-02-12T13:05:24.735Z,102899.75
2023-02-12T13:08:06.462Z,102900.69
2023-02-12T13:10:53.131Z,102902.41
2023-02-12T13:13:34.157Z,102904.13
2023-02-12T13:16:15.512Z,102905.91
2023-02-12T13:19:24.783Z,102905.22
2023-02-12T13:22:30.268Z,102906.06
2023-02-12T13:25:48.162Z,102911.13
2023-02-12T13:28:40.724Z,102909.28
2023-02-12T13:32:03.781Z,102908.28
2023-02-12T13:34:33.036Z,102902.47
2023-02-12T13:37:06.154Z,102902.41
2023-02-12T13:39:55.881Z,102901.41
2023-02-12T13:42:37.389Z,102904.03
2023-02-12T13:45:45.814Z,102899.84
2023-02-12T13:52:37.681Z,102896.25
2023-02-12T13:56:02.750Z,102897.38
2023-02-12T13:58:50.458Z,102907.00
2023-02-12T14:08:22.703Z,102906.00
2023-02-12T14:11:32.531Z,102901.75
2023-02-12T14:14:17.094Z,102906.06
2023-02-12T14:16:59.787Z,102907.66
2023-02-12T14:19:45.667Z,102909.31
2023-02-12T14:22:42.963Z,102905.03
2023-02-12T14:25:41.370Z,102902.47
2023-02-12T14:28:24.471Z,102898.03
2023-02-12T14:31:30.061Z,102900.63
2023-02-12T14:34:08.983Z,102894.47
2023-02-12T14:37:13.654Z,102895.38
2023-02-12T14:40:20.758Z,102894.50
2023-02-12T14:42:56.816Z,102904.28
2023-02-12T14:45:40.465Z,102900.72
2023-02-12T14:48:46.054Z,102909.44
2023-02-12T14:51:22.064Z,102901.41
2023-02-12T14:54:01.185Z,102901.53
2023-02-12T14:56:54.732Z,102904.16
2023-02-12T14:59:26.045Z,102912.03
2023-02-12T15:02:14.715Z,102906.00
2023-02-12T15:04:48.527Z,102914.72
2023-02-12T15:07:31.740Z,102917.44
2023-02-12T15:10:19.827Z,102914.88
2023-02-12T15:13:14.347Z,102912.38
2023-02-12T15:16:22.287Z,102920.25
2023-02-12T15:22:47.456Z,102931.50
2023-02-12T15:25:29.463Z,102935.84
2023-02-12T15:28:00.930Z,102924.28
2023-02-12T15:30:37.031Z,102938.47
2023-02-12T15:33:37.355Z,102934.91
2023-02-12T15:36:20.786Z,102939.34
2023-02-12T15:38:59.320Z,102937.59
2023-02-12T15:41:47.861Z,102941.94
2023-02-12T15:44:44.485Z,102945.56
2023-02-12T15:47:43.993Z,102946.34
2023-02-12T15:50:23.061Z,102948.09
2023-02-12T15:52:55.194Z,102945.50
2023-02-12T15:55:27.952Z,102945.56
2023-02-12T15:58:02.306Z,102941.94
2023-02-12T16:00:54.248Z,102947.97
2023-02-12T16:03:33.287Z,102942.75
2023-02-12T16:06:25.913Z,102947.00
2023-02-12T16:09:39.131Z,102948.63
2023-02-12T16:12:19.373Z,102947.06
2023-02-12T16:15:09.516Z,102953.06
2023-02-12T16:18:03.305Z,102959.16
2023-02-12T16:20:52.543Z,102964.44
2023-02-12T16:26:27.363Z,102963.59
2023-02-12T16:28:58.433Z,102969.75
2023-02-12T16:31:44.247Z,102963.63
2023-02-12T16:35:05.090Z,102969.72
2023-02-12T16:38:35.052Z,102973.28
2023-02-12T16:41:24.080Z,102983.59
2023-02-12T16:44:40.825Z,102983.44
2023-02-12T16:47:24.974Z,102982.34
2023-02-12T16:50:06.321Z,102988.47
2023-02-12T16:56:10.836Z,102992.22
2023-02-12T16:59:00.916Z,103005.13
2023-02-12T17:01:56.799Z,103005.81
2023-02-12T17:07:23.755Z,103010.72
2023-02-12T17:09:51.985Z,103007.16
2023-02-12T17:12:21.758Z,103015.97
2023-02-12T17:14:51.929Z,103012.47
2023-02-12T17:20:46.898Z,103023.81
2023-02-12T17:24:17.304Z,103030.16
2023-02-12T17:26:56.450Z,103029.13
2023-02-12T17:29:25.560Z,103034.59
2023-02-12T17:31:58.920Z,103041.19
2023-02-12T17:34:39.689Z,103046.59
2023-02-12T17:37:39.358Z,103049.50
2023-02-12T17:40:11.519Z,103064.84
2023-02-12T17:43:01.649Z,103062.16
2023-02-12T17:45:41.962Z,103078.88
2023-02-12T17:48:24.260Z,103079.47
2023-02-12T17:50:58.755Z,103079.84
2023-02-12T17:53:51.603Z,103081.13
2023-02-12T17:56:42.294Z,103080.72
2023-02-12T18:02:38.089Z,103081.69
2023-02-12T18:05:05.417Z,103083.06
2023-02-12T18:07:39.302Z,103080.31
2023-02-12T18:10:16.255Z,103094.41
2023-02-12T18:13:00.205Z,103089.66
2023-02-12T18:15:27.219Z,103091.97
2023-02-12T18:18:25.860Z,103102.38
2023-02-12T18:20:56.072Z,103100.97
2023-02-12T18:23:26.386Z,103100.63
2023-02-12T18:26:05.125Z,103107.31
2023-02-12T18:28:42.182Z,103096.00
2023-02-12T18:31:30.463Z,103091.88
2023-02-12T18:34:29.300Z,103100.38
2023-02-12T18:37:05.044Z,103106.94
2023-02-12T18:39:32.029Z,103109.72
2023-02-12T18:41:59.752Z,103104.81
2023-02-12T18:44:37.017Z,103106.81
2023-02-12T18:50:09.150Z,103106.28
2023-02-12T18:52:40.620Z,103115.28
2023-02-12T18:55:10.459Z,103116.16
2023-02-12T18:57:40.244Z,103117.41
2023-02-12T19:00:07.646Z,103120.69
2023-02-12T19:02:58.775Z,103123.78
2023-02-12T19:05:29.565Z,103117.78
2023-02-12T19:08:02.814Z,103122.03
2023-02-12T19:10:29.900Z,103122.88
2023-02-12T19:13:01.271Z,103119.31
2023-02-12T19:15:29.546Z,103132.03
2023-02-12T19:18:02.735Z,103135.09
2023-02-12T19:20:29.820Z,103136.03
2023-02-12T19:22:56.836Z,103134.03
2023-02-12T19:25:24.449Z,103141.19
2023-02-12T19:27:56.292Z,103139.34
2023-02-12T19:30:26.151Z,103130.34
2023-02-12T19:32:55.856Z,103136.81
2023-02-12T19:35:40.979Z,103142.56
2023-02-12T19:38:08.244Z,103143.78
2023-02-12T19:40:44.051Z,103146.63
2023-02-12T19:43:15.361Z,103143.16
2023-02-12T19:45:43.258Z,103151.69
2023-02-12T19:48:19.213Z,103145.19
2023-02-12T19:50:53.622Z,103156.22
2023-02-12T19:53:21.714Z,103148.28
2023-02-12T19:55:55.884Z,103151.56
2023-02-12T19:58:34.266Z,103154.09
2023-02-12T20:01:21.233Z,103157.78
2023-02-12T20:04:03.978Z,103154.44
2023-02-12T20:06:40.405Z,103156.97
2023-02-12T20:09:16.272Z,103163.97
2023-02-12T20:11:47.454Z,103161.88
2023-02-12T20:14:30.579Z,103165.88
2023-02-12T20:17:45.993Z,103162.03
2023-02-12T20:20:13.700Z,103178.47
2023-02-12T20:22:48.951Z,103173.19
2023-02-12T20:25:18.826Z,103182.63
2023-02-12T20:27:49.111Z,103178.88
2023-02-12T20:30:21.005Z,103172.47
2023-02-12T20:32:51.491Z,103186.22
2023-02-12T20:35:26.439Z,103182.03
2023-02-12T20:37:56.468Z,103183.53
2023-02-12T20:40:42.486Z,103188.28
2023-02-12T20:43:16.119Z,103187.41
2023-02-12T20:45:48.104Z,103180.84
2023-02-12T20:48:19.820Z,103187.56
2023-02-12T20:50:51.842Z,103188.69
2023-02-12T20:53:28.157Z,103196.06
2023-02-12T20:55:56.626Z,103194.31
2023-02-12T20:58:33.274Z,103196.94
2023-02-12T21:01:10.797Z,103193.69
2023-02-12T21:03:40.519Z,103193.81
2023-02-12T21:06:21.469Z,103192.41
2023-02-12T21:08:57.121Z,103202.09
2023-02-12T21:11:29.634Z,103213.00
2023-02-12T21:14:20.705Z,103214.88
2023-02-12T21:16:49.126Z,103213.06
2023-02-12T21:19:25.517Z,103212.78
2023-02-12T21:21:57.404Z,103222.69
2023-02-12T21:24:38.151Z,103219.63
2023-02-12T21:27:14.633Z,103221.00
2023-02-12T21:29:57.390Z,103230.75
2023-02-12T21:32:33.128Z,103224.66
2023-02-12T21:35:02.934Z,103223.56
2023-02-12T21:37:34.014Z,103223.28
2023-02-12T21:40:07.379Z,103226.09
2023-02-12T21:42:36.677Z,103222.31
2023-02-12T21:45:07.989Z,103225.22
2023-02-12T21:47:39.614Z,103230.09
2023-02-12T21:50:15.864Z,103238.09
2023-02-12T21:52:51.745Z,103230.34
2023-02-12T21:55:18.914Z,103232.13
2023-02-12T21:57:59.392Z,103226.47
2023-02-12T22:03:12.037Z,103238.59
2023-02-12T22:05:50.484Z,103240.75
2023-02-12T22:08:29.097Z,103242.47
2023-02-12T22:11:10.921Z,103241.16
2023-02-12T22:13:43.283Z,103240.41
2023-02-12T22:16:31.243Z,103247.09
2023-02-12T22:19:05.890Z,103246.84
2023-02-12T22:21:42.212Z,103244.94
2023-02-12T22:24:18.833Z,103251.63
2023-02-12T22:27:00.045Z,103251.22
2023-02-12T22:29:27.589Z,103252.19
2023-02-12T22:31:57.507Z,103254.84
2023-02-12T22:34:43.845Z,103261.66
2023-02-12T22:37:14.506Z,103263.66
2023-02-12T22:39:44.424Z,103268.78
2023-02-12T22:42:11.558Z,103267.44
2023-02-12T22:44:48.776Z,103267.97
2023-02-12T22:47:33.631Z,103276.53
2023-02-12T22:50:05.011Z,103275.47
2023-02-12T22:52:51.341Z,103275.69
2023-02-12T22:55:25.580Z,103280.25
2023-02-12T22:57:52.490Z,103281.63
2023-02-12T23:00:20.096Z,103285.94
2023-02-12T23:05:36.767Z,103298.34
2023-02-12T23:08:04.916Z,103300.81
2023-02-12T23:10:40.790Z,103303.44
2023-02-12T23:13:28.948Z,103309.63
2023-02-12T23:15:57.339Z,103312.44
2023-02-12T23:18:27.597Z,103313.31
2023-02-12T23:21:07.454Z,103319.63
2023-02-12T23:23:38.905Z,103310.75
2023-02-12T23:26:11.994Z,103315.66
2023-02-12T23:34:13.065Z,103323.06
2023-02-12T23:36:58.146Z,103317.09
2023-02-12T23:39:29.110Z,103313.94
2023-02-12T23:42:00.122Z,103320.06
2023-02-12T23:44:28.335Z,103329.06
2023-02-12T23:46:56.970Z,103326.44
2023-02-12T23:49:26.240Z,103330.03
2023-02-12T23:52:00.817Z,103322.44
2023-02-12T23:54:29.596Z,103324.53
2023-02-12T23:57:00.921Z,103322.72
2023-02-12T23:59:31.279Z,103331.13
